Terminal Aerodrome Forecast
Issued by NWS Wilmington, OH

Current Version | Previous Version | Graphics & Text | Print | Product List | Glossary On
Versions: 1 2 3 4 5 6 7 8 9 10 11 12 13 14 15 16 17 18 19 20 21 22 23 24 25 26 27 28 29 30
000
FTUS41 KILN 010300 AAA
TAFCMH
TAF AMD
KCMH 010330Z 0104/0124 19005KT P6SM OVC040
     FM010600 20004KT 4SM -SNPL BR OVC020
     FM010800 20003KT 1SM -SN BR OVC008
     FM011200 14004KT 5SM BR VCSH OVC012
     FM011600 12008KT P6SM VCSH SCT020 BKN040
     FM012000 11010KT 4SM -RASN BKN020
     FM012200 11010KT 1 1/2SM RA BKN008=

USA.gov is the U.S. government's official web portal to all federal, state and local government web resources and services.